LDSP Airport Information

Runway Information
Runway 05 Length 8366 ft width 148 ft
Elevation 70 ft Threshold ft Heading 53
Runway 23 Length 8366 ft Width 148 ft
Elevation 50 ft Threshold 525 ft Heading 233
Airport Frequencies
Type APP Name APP Frequency 120.875 MHZ
Type INFO Name INFO Frequency 128.675 MHZ
Type TWR Name TWR Frequency 124.675 MHZ
Airport Navaids
Type NDB Name Drvenik Frequency 418 KHZ
Type VOR-DME Name Split Frequency 115700 KHZ
Type NDB Name Trogir Frequency 378 KHZ
Airport Weather Information & NOTAM
ADDS - METARS form results

(1417 UTC 26 June 2022)
Data provider http://aviationweather.gov/metar/data/
 
METAR text: LDSP 261400Z 23013KT CAVOK 31/16 Q1014 NOSIG
Conditions at: LDSP (SPLIT/KASTEL STA, HR) observed 1400 UTC 26 June 2022
Temperature: 31.0°C (88°F)
Dewpoint: 16.0°C (61°F) [RH = 40%]
Pressure (altimeter): 29.94 inches Hg (1014.0 mb)
Winds: from the SW (230 degrees) at 15 MPH (13 knots; 6.7 m/s)
Visibility: 6 or more miles (10+ km)
Ceiling: ceiling and visibility are OK
Clouds: unknown
Weather: no significant weather observed at this time

METAR text: LDSP 261330Z 23014KT CAVOK 32/16 Q1014 NOSIG
Conditions at: LDSP (SPLIT/KASTEL STA, HR) observed 1330 UTC 26 June 2022
Temperature: 32.0°C (90°F)
Dewpoint: 16.0°C (61°F) [RH = 38%]
Pressure (altimeter): 29.94 inches Hg (1014.0 mb)
Winds: from the SW (230 degrees) at 16 MPH (14 knots; 7.2 m/s)
Visibility: 6 or more miles (10+ km)
Ceiling: ceiling and visibility are OK
Clouds: unknown
Weather: no significant weather observed at this time

Forecast for: LDSP (SPLIT/KASTEL STA, HR)
Text: TAF LDSP 261125Z 2612/2712 23010KT CAVOK TX33/2613Z TN21/2703Z
Forecast period: 1200 to 1600 UTC 26 June 2022
Forecast type: FROM: standard forecast or significant change
Winds: from the SW (230 degrees) at 12 MPH (10 knots; 5.1 m/s)
Visibility: 6 or more miles (10+ km)
Ceiling: unknown
Clouds: missing
Weather: no significant weather forecast for this period
Text: BECMG 2616/2618 30006KT
Forecast period: 1600 UTC 26 June 2022 to 1000 UTC 27 June 2022
Forecast type: BECOMING: Conditions expected to become as follows by 1800 UTC 26 June 2022
Winds: from the WNW (300 degrees) at 7 MPH (6 knots; 3.1 m/s)
Visibility: 6 or more miles (10+ km)
Ceiling: unknown
Clouds: missing
Weather: no significant weather forecast for this period
Text: BECMG 2710/2712 23008KT
Forecast period: 1000 to 1200 UTC 27 June 2022
Forecast type: BECOMING: Conditions expected to become as follows by 1200 UTC 27 June 2022
Winds: from the SW (230 degrees) at 9 MPH (8 knots; 4.1 m/s)
Visibility: 6 or more miles (10+ km)
Ceiling: unknown
Clouds: missing
Weather: no significant weather forecast for this period